Time;durP1;ratioP1;P1;durP2;ratioP2;P2;SDS_P1;SDS_P2;PMS_P1;PMS_P2;Temp;Humidity;BMP_temperature;BMP_pressure;BME280_temperature;BME280_humidity;BME280_pressure;Samples;Min_cycle;Max_cycle;Signal;HPM_P1;HPM_P2
2021/10/06 00:02:02;;;;;;;2.45;0.73;;;13.10;85.90;;;11.69;96.71;95849.22;4974977;28;20096;-66
2021/10/06 00:04:28;;;;;;;1.17;1.00;;;13.10;85.60;;;11.69;96.89;95851.84;4974310;28;20037;-67
2021/10/06 00:06:53;;;;;;;2.38;1.20;;;13.10;85.80;;;11.66;96.58;95867.06;4990172;28;20030;-66
2021/10/06 00:09:19;;;;;;;1.52;1.17;;;13.00;85.70;;;11.66;97.03;95869.69;4966858;28;20034;-66
2021/10/06 00:11:45;;;;;;;2.25;1.23;;;13.10;85.70;;;11.65;97.14;95864.63;4990470;28;20057;-67
2021/10/06 00:14:11;;;;;;;2.28;1.20;;;13.10;85.40;;;11.63;96.89;95870.09;4974329;28;20026;-67
2021/10/06 00:16:37;;;;;;;1.90;1.27;;;13.10;85.30;;;11.64;96.07;95879.63;4990332;28;20033;-67
2021/10/06 00:19:03;;;;;;;2.05;1.00;;;13.10;85.10;;;11.63;96.33;95888.53;4977610;28;20448;-66
2021/10/06 00:21:29;;;;;;;3.70;1.80;;;13.00;85.20;;;11.62;96.66;95896.66;4978696;28;20057;-67
2021/10/06 00:23:55;;;;;;;4.85;1.50;;;13.00;85.00;;;11.60;95.47;95894.22;4994278;28;20076;-66
2021/10/06 00:26:21;;;;;;;3.88;1.98;;;13.00;84.90;;;11.59;95.85;95902.31;4978517;28;20152;-66
2021/10/06 00:28:47;;;;;;;3.75;1.30;;;13.00;84.90;;;11.56;95.94;95903.53;5011475;28;20042;-67
2021/10/06 00:31:12;;;;;;;3.17;1.20;;;12.90;85.00;;;11.55;95.58;95906.38;4993105;28;20030;-66
2021/10/06 00:33:38;;;;;;;6.97;1.27;;;12.90;84.60;;;11.55;95.58;95909.00;5012002;28;20081;-66
2021/10/06 00:36:04;;;;;;;1.20;0.82;;;12.90;84.90;;;11.53;95.77;95914.44;4963226;28;20030;-67
2021/10/06 00:38:30;;;;;;;2.50;1.02;;;12.90;84.80;;;11.51;95.55;95916.47;4981503;28;20034;-67
2021/10/06 00:40:55;;;;;;;2.03;0.90;;;12.90;85.10;;;11.49;95.52;95926.38;4993386;28;20567;-66
2021/10/06 00:43:22;;;;;;;2.22;0.90;;;12.90;84.80;;;11.48;95.99;95929.22;4978338;28;20449;-67
2021/10/06 00:45:47;;;;;;;1.77;1.00;;;12.90;85.20;;;11.48;95.89;95942.41;5004915;28;20052;-66
2021/10/06 00:48:13;;;;;;;3.13;1.20;;;12.90;85.00;;;11.46;95.74;95941.78;4994014;28;20030;-66
2021/10/06 00:50:39;;;;;;;4.40;1.10;;;12.90;85.20;;;11.48;96.10;95942.41;4961049;28;20049;-66
2021/10/06 00:53:05;;;;;;;3.17;1.08;;;12.90;85.40;;;11.46;96.31;95944.41;4978895;28;20038;-66
2021/10/06 00:55:31;;;;;;;2.15;1.08;;;12.90;85.10;;;11.43;95.77;95950.91;5008303;28;20065;-66
2021/10/06 00:57:57;;;;;;;3.40;0.90;;;12.90;85.00;;;11.44;96.07;95954.34;4974295;28;20121;-67
2021/10/06 01:00:23;;;;;;;2.58;1.05;;;12.80;84.90;;;11.44;96.26;95954.34;4974686;28;20073;-67
2021/10/06 01:02:48;;;;;;;2.28;1.10;;;12.80;84.90;;;11.40;95.69;95956.56;5008844;28;20064;-66
2021/10/06 01:05:14;;;;;;;2.15;1.02;;;12.80;84.70;;;11.40;95.54;95961.03;5009973;28;20072;-65
2021/10/06 01:07:40;;;;;;;2.33;1.10;;;12.90;84.70;;;11.38;95.20;95957.78;4977312;28;20064;-66
2021/10/06 01:10:08;;;;;;;3.70;1.15;;;12.80;84.60;;;11.38;95.26;95969.13;4958659;28;20500;-66
2021/10/06 01:12:34;;;;;;;2.22;1.48;;;12.80;84.50;;;11.37;95.19;95966.69;4974528;28;20066;-66
2021/10/06 01:15:00;;;;;;;1.58;1.10;;;12.80;84.80;;;11.35;95.35;95972.16;4928211;28;20089;-66
2021/10/06 01:17:26;;;;;;;3.22;1.30;;;12.80;84.90;;;11.33;95.17;95966.28;4993400;28;20029;-67
2021/10/06 01:19:51;;;;;;;2.15;1.35;;;12.80;84.90;;;11.34;95.74;95962.63;4944869;28;20076;-66
2021/10/06 01:22:17;;;;;;;2.42;1.40;;;12.80;84.90;;;11.34;95.34;95963.44;4960969;28;20604;-66
2021/10/06 01:24:43;;;;;;;2.97;1.25;;;12.90;84.80;;;11.34;95.86;95968.69;4960621;28;20522;-66
2021/10/06 01:27:10;;;;;;;2.63;0.95;;;12.80;84.50;;;11.34;95.13;95967.91;4991680;28;20106;-66
2021/10/06 01:29:36;;;;;;;4.60;1.10;;;12.80;84.80;;;11.33;95.08;95961.00;5011861;28;20044;-66
2021/10/06 01:32:09;;;;;;;3.67;0.90;;;12.80;84.30;;;11.34;94.96;95967.91;4982506;28;20033;-66
2021/10/06 01:34:35;;;;;;;1.70;0.90;;;12.80;84.00;;;11.31;94.63;95969.06;4999853;28;20029;-66
2021/10/06 01:37:01;;;;;;;2.80;0.90;;;12.70;84.00;;;11.28;94.88;95968.66;4997334;28;20505;-66
2021/10/06 01:39:27;;;;;;;1.33;0.98;;;12.70;84.10;;;11.25;94.56;95974.31;4994514;28;20030;-66
2021/10/06 01:41:52;;;;;;;1.90;1.02;;;12.70;83.70;;;11.23;94.27;95979.78;4985429;28;20026;-66
2021/10/06 01:44:18;;;;;;;2.42;0.90;;;12.70;84.10;;;11.21;94.58;95988.88;4985028;28;20068;-67
2021/10/06 01:46:44;;;;;;;4.60;1.10;;;12.60;83.70;;;11.21;93.87;95986.25;4978244;28;20443;-66
2021/10/06 01:49:11;;;;;;;2.00;0.73;;;12.60;83.60;;;11.19;94.00;95986.44;4962453;28;20494;-67
2021/10/06 01:51:36;;;;;;;2.30;0.70;;;12.60;83.50;;;11.17;94.20;95979.75;4979970;28;20111;-67
2021/10/06 01:54:04;;;;;;;5.35;0.90;;;12.60;83.40;;;11.17;94.02;95982.38;5012590;28;20506;-67
2021/10/06 01:56:30;;;;;;;2.72;1.00;;;12.60;83.20;;;11.18;94.08;95984.00;4995820;28;20034;-66
2021/10/06 01:58:56;;;;;;;2.80;0.90;;;12.70;83.40;;;11.17;93.00;95979.75;4995538;28;20037;-67
2021/10/06 02:01:22;;;;;;;3.08;0.90;;;12.70;83.30;;;11.17;93.29;95977.94;4995782;28;20033;-66
2021/10/06 02:03:48;;;;;;;3.50;0.75;;;12.60;83.30;;;11.15;93.60;95984.41;5012261;28;20068;-66
2021/10/06 02:06:13;;;;;;;1.92;0.88;;;12.60;83.50;;;11.16;93.40;95986.03;4998952;28;20117;-66
2021/10/06 02:08:39;;;;;;;2.83;0.60;;;12.70;83.40;;;11.15;94.18;95984.41;5004981;28;20065;-66
2021/10/06 02:11:05;;;;;;;3.55;0.80;;;12.60;83.40;;;11.15;93.98;95979.97;4995223;28;20060;-67
2021/10/06 02:13:30;;;;;;;2.60;0.70;;;12.60;83.20;;;11.16;93.71;95986.03;5011749;28;20034;-66
2021/10/06 02:15:56;;;;;;;4.25;0.98;;;12.60;83.20;;;11.13;93.37;95976.72;4973031;28;20062;-67
2021/10/06 02:18:22;;;;;;;2.83;1.10;;;12.60;82.80;;;11.12;92.93;95988.25;4983746;28;20089;-66
2021/10/06 02:20:48;;;;;;;2.22;0.88;;;12.60;82.90;;;11.10;92.44;95986.81;4996602;28;20045;-66
2021/10/06 02:23:14;;;;;;;2.75;0.90;;;12.50;82.70;;;11.09;92.49;95988.63;4980927;28;20049;-67
2021/10/06 02:25:40;;;;;;;3.63;0.88;;;12.60;83.00;;;11.08;93.08;95988.81;5005269;28;20052;-66
2021/10/06 02:28:06;;;;;;;3.58;0.77;;;12.50;82.60;;;11.05;92.16;95985.56;4982978;28;20073;-66
2021/10/06 02:30:32;;;;;;;4.10;1.13;;;12.60;82.60;;;11.02;92.29;95987.78;4991854;28;20038;-66
2021/10/06 02:32:57;;;;;;;1.85;0.60;;;12.50;82.30;;;11.00;92.35;95987.97;4975507;28;20039;-66
2021/10/06 02:35:23;;;;;;;2.85;0.80;;;12.50;82.80;;;10.99;92.05;95991.59;4976678;28;20040;-66
2021/10/06 02:37:49;;;;;;;1.88;0.73;;;12.50;82.50;;;10.99;92.58;95985.53;4993784;28;20034;-66
2021/10/06 02:40:16;;;;;;;3.90;1.05;;;12.50;82.50;;;10.97;91.72;95988.34;4982669;28;20045;-67
2021/10/06 02:42:43;;;;;;;2.67;0.80;;;12.50;82.70;;;10.97;92.97;95993.63;4980335;28;20037;-66
2021/10/06 02:45:11;;;;;;;4.00;0.73;;;12.50;82.90;;;10.96;93.07;95986.72;4991320;28;20534;-66
2021/10/06 02:47:37;;;;;;;2.55;0.90;;;12.50;82.80;;;10.98;93.07;95987.34;4974262;28;20456;-66
2021/10/06 02:50:04;;;;;;;3.53;0.65;;;12.60;83.00;;;10.95;92.11;95989.56;4958987;28;20026;-66
2021/10/06 02:52:30;;;;;;;2.10;0.80;;;12.50;82.70;;;10.93;92.85;95984.50;4975266;28;20057;-66
2021/10/06 02:54:56;;;;;;;3.75;0.70;;;12.50;83.20;;;10.93;92.81;95994.22;5003963;28;20057;-66
2021/10/06 02:57:22;;;;;;;1.23;0.73;;;12.50;83.10;;;10.93;93.57;95988.94;4968886;28;20050;-66
2021/10/06 02:59:47;;;;;;;2.30;1.15;;;12.50;83.50;;;10.92;93.69;95996.03;4939795;28;20146;-67
2021/10/06 03:02:13;;;;;;;3.58;0.85;;;12.40;83.40;;;10.92;92.85;95996.03;4981907;28;20069;-66
2021/10/06 03:04:39;;;;;;;2.28;0.70;;;12.50;83.30;;;10.91;93.29;96004.94;4973783;28;20413;-67
2021/10/06 03:07:04;;;;;;;1.73;0.77;;;12.50;83.50;;;10.90;93.38;96005.94;5004652;28;20549;-67
2021/10/06 03:09:30;;;;;;;2.78;0.80;;;12.40;83.50;;;10.89;92.86;96006.94;4999199;28;20025;-66
2021/10/06 03:11:56;;;;;;;2.45;0.88;;;12.40;83.40;;;10.88;92.59;96013.22;5011848;28;20087;-66
2021/10/06 03:14:22;;;;;;;2.72;0.73;;;12.30;83.40;;;10.86;92.75;96022.28;5008069;28;20415;-67
2021/10/06 03:16:47;;;;;;;4.13;1.00;;;12.30;83.40;;;10.82;93.06;96026.31;4991605;28;20773;-66
2021/10/06 03:19:13;;;;;;;1.95;0.60;;;12.20;83.50;;;10.78;93.70;96023.25;4987577;28;20054;-66
2021/10/06 03:21:39;;;;;;;1.40;0.80;;;12.20;83.70;;;10.78;92.69;96023.25;5006269;28;20058;-66
2021/10/06 03:24:05;;;;;;;3.95;1.00;;;12.20;83.80;;;10.77;93.96;96021.63;5007744;28;20506;-66
2021/10/06 03:26:30;;;;;;;1.30;0.68;;;12.30;83.70;;;10.76;92.90;96016.56;4991335;28;20491;-67
2021/10/06 03:28:58;;;;;;;2.60;1.00;;;12.20;83.50;;;10.77;93.88;96012.91;4990995;28;20049;-66
2021/10/06 03:31:23;;;;;;;2.00;0.80;;;12.40;83.80;;;10.77;93.80;96013.72;4975797;28;20030;-66
2021/10/06 03:33:49;;;;;;;2.17;0.77;;;12.30;83.50;;;10.75;93.71;96010.47;4992145;28;20142;-67
2021/10/06 03:36:15;;;;;;;2.67;0.90;;;12.20;83.50;;;10.73;93.27;96023.81;4975309;28;20036;-67
2021/10/06 03:38:41;;;;;;;2.95;0.80;;;12.20;83.10;;;10.71;93.54;96033.72;4991192;28;20033;-66
2021/10/06 03:41:06;;;;;;;2.60;0.90;;;12.10;83.50;;;10.69;92.95;96034.94;4972987;28;20110;-66
2021/10/06 03:43:32;;;;;;;1.48;0.70;;;12.10;83.50;;;10.69;93.19;96027.03;4981136;28;20448;-66
2021/10/06 03:45:58;;;;;;;3.17;1.00;;;12.10;83.60;;;10.68;92.98;96030.69;4980387;28;20034;-66
2021/10/06 03:48:23;;;;;;;2.47;0.63;;;12.20;83.40;;;10.64;92.58;96035.50;4977000;28;20122;-67
2021/10/06 03:50:49;;;;;;;4.00;0.98;;;12.10;83.30;;;10.63;92.45;96038.31;5006402;28;20179;-67
2021/10/06 03:53:15;;;;;;;5.30;1.02;;;12.10;83.40;;;10.63;92.91;96043.56;5005230;28;20481;-69
2021/10/06 03:55:41;;;;;;;3.53;1.08;;;12.10;83.60;;;10.62;93.47;96047.19;4959107;28;20557;-67
2021/10/06 03:58:07;;;;;;;2.05;0.80;;;12.00;83.40;;;10.59;92.16;96042.31;4968478;28;20116;-68
2021/10/06 04:00:33;;;;;;;3.28;0.95;;;12.00;83.20;;;10.58;92.59;96051.22;4976701;28;20041;-68
2021/10/06 04:02:59;;;;;;;2.53;0.80;;;12.10;83.30;;;10.55;92.53;96056.84;4981831;28;20030;-75
2021/10/06 04:05:25;;;;;;;4.22;1.00;;;12.00;83.50;;;10.52;93.56;96060.69;4991460;28;20053;-71
2021/10/06 04:07:51;;;;;;;2.67;0.80;;;12.00;83.40;;;10.50;92.67;96070.59;4974865;28;20128;-71
2021/10/06 04:10:17;;;;;;;3.00;0.90;;;11.90;83.30;;;10.48;92.17;96072.59;4978994;28;20068;-66
2021/10/06 04:12:43;;;;;;;4.00;1.08;;;11.90;83.30;;;10.46;92.85;96071.16;4996859;28;20065;-66
2021/10/06 04:15:09;;;;;;;3.85;1.08;;;11.90;83.20;;;10.48;92.73;96074.41;4975285;28;20034;-65
2021/10/06 04:17:35;;;;;;;3.08;1.00;;;11.90;83.10;;;10.48;92.70;96066.53;4975476;28;20522;-66
2021/10/06 04:20:01;;;;;;;3.40;0.65;;;11.90;82.90;;;10.43;92.48;96069.72;4954905;28;20038;-66
2021/10/06 04:22:28;;;;;;;2.20;0.80;;;11.80;82.90;;;10.41;93.19;96074.34;4977491;28;20084;-65
2021/10/06 04:24:53;;;;;;;3.50;1.00;;;11.80;83.30;;;10.38;92.02;96083.41;4991991;28;20056;-66
2021/10/06 04:27:19;;;;;;;4.80;3.08;;;11.80;83.50;;;10.39;93.25;96081.59;4958886;28;20054;-66
2021/10/06 04:29:45;;;;;;;3.47;1.60;;;11.80;83.80;;;10.38;92.70;96083.41;4974666;28;20030;-66
2021/10/06 04:32:11;;;;;;;5.35;1.00;;;11.80;83.40;;;10.36;92.56;96088.03;4975246;28;20060;-66
2021/10/06 04:34:37;;;;;;;5.13;1.27;;;11.70;83.60;;;10.34;92.27;96097.13;4975126;28;20042;-66
2021/10/06 04:37:03;;;;;;;3.47;0.80;;;11.70;83.40;;;10.28;93.08;96092.63;4975101;28;20168;-67
2021/10/06 04:39:29;;;;;;;4.80;1.25;;;11.60;83.50;;;10.24;93.10;96092.19;4990939;28;20038;-66
2021/10/06 04:41:54;;;;;;;5.47;2.22;;;11.60;83.80;;;10.25;93.63;96098.25;4975333;28;20470;-66
2021/10/06 04:44:20;;;;;;;6.25;2.60;;;11.60;83.90;;;10.23;93.10;96095.00;4999115;28;20678;-66
2021/10/06 04:46:47;;;;;;;4.85;1.25;;;11.60;83.90;;;10.24;92.80;96096.63;5007758;28;20511;-66
2021/10/06 04:49:16;;;;;;;4.22;1.08;;;11.60;83.90;;;10.24;93.12;96101.88;4976046;28;20030;-66
2021/10/06 04:51:42;;;;;;;3.72;0.93;;;11.60;84.00;;;10.22;92.38;96099.44;4990359;28;20026;-67
2021/10/06 04:54:08;;;;;;;4.60;0.98;;;11.60;83.90;;;10.21;93.43;96102.25;4984855;28;20507;-68
2021/10/06 04:56:33;;;;;;;4.65;1.13;;;11.60;83.80;;;10.20;92.78;96101.41;5000390;28;20045;-68
2021/10/06 04:58:59;;;;;;;4.03;1.20;;;11.60;83.90;;;10.18;92.90;96108.66;4990569;28;20034;-67
2021/10/06 05:01:25;;;;;;;2.90;0.82;;;11.60;84.10;;;10.19;93.05;96110.31;5006734;28;20115;-71
2021/10/06 05:03:51;;;;;;;3.00;0.70;;;11.70;84.00;;;10.20;93.67;96106.66;5000444;28;20516;-69
2021/10/06 05:06:16;;;;;;;2.53;0.70;;;11.70;84.00;;;10.19;93.75;96105.06;4988946;28;20507;-69
2021/10/06 05:08:43;;;;;;;2.75;0.90;;;11.70;84.10;;;10.19;93.31;96105.06;5013557;28;20033;-71
2021/10/06 05:11:09;;;;;;;3.35;0.80;;;11.60;84.00;;;10.17;94.11;96114.09;4994004;28;20046;-68
2021/10/06 05:13:34;;;;;;;5.45;1.23;;;11.60;84.10;;;10.14;93.26;96112.66;4985528;28;20091;-70
2021/10/06 05:16:00;;;;;;;5.97;1.10;;;11.60;84.10;;;10.10;94.29;96121.91;4989064;28;20030;-67
2021/10/06 05:18:26;;;;;;;4.40;1.10;;;11.60;84.90;;;10.12;93.88;96125.16;4978675;28;20537;-66
2021/10/06 05:20:52;;;;;;;5.40;1.05;;;11.60;84.40;;;10.09;93.93;96126.34;4994942;28;20410;-67
2021/10/06 05:23:17;;;;;;;3.63;0.90;;;11.60;84.50;;;10.09;94.60;96130.78;4981085;28;20121;-69
2021/10/06 05:25:43;;;;;;;2.78;0.82;;;11.60;84.60;;;10.06;94.66;96134.63;4994962;28;20120;-65
2021/10/06 05:28:09;;;;;;;3.38;0.88;;;11.50;84.60;;;10.03;93.82;96144.69;5023370;28;20057;-64
2021/10/06 05:30:34;;;;;;;6.75;4.00;;;11.50;84.70;;;10.03;94.09;96157.81;5010864;28;20072;-65
2021/10/06 05:33:00;;;;;;;3.35;1.05;;;11.50;84.90;;;10.03;94.97;96163.06;5010863;28;20064;-65
2021/10/06 05:35:26;;;;;;;6.63;1.10;;;11.50;84.70;;;10.03;94.94;96168.34;5029154;28;20084;-65
2021/10/06 05:37:52;;;;;;;1.83;0.77;;;11.60;84.60;;;10.02;94.14;96166.72;4997802;28;20049;-66
2021/10/06 05:40:18;;;;;;;3.97;1.30;;;11.50;84.60;;;10.03;94.19;96163.06;4979573;28;20033;-65
2021/10/06 05:42:43;;;;;;;5.85;1.05;;;11.50;84.80;;;10.03;94.94;96166.53;4987889;28;20026;-66
2021/10/06 05:45:09;;;;;;;4.88;1.02;;;11.50;84.80;;;10.01;94.49;96165.91;4978198;28;20120;-65
2021/10/06 05:47:35;;;;;;;5.03;1.20;;;11.50;84.60;;;10.04;94.88;96165.53;4996922;28;20045;-67
2021/10/06 05:50:00;;;;;;;4.68;1.17;;;11.60;84.80;;;10.06;94.57;96178.47;5002706;28;20053;-67
2021/10/06 05:52:26;;;;;;;3.22;1.10;;;11.60;84.60;;;10.10;95.17;96179.72;4980465;28;20061;-64
2021/10/06 05:54:52;;;;;;;3.65;1.10;;;11.70;84.30;;;10.09;94.72;96183.38;4991729;28;20034;-70
2021/10/06 05:57:18;;;;;;;2.95;0.90;;;11.60;84.50;;;10.12;95.59;96183.00;4969516;28;20049;-64
2021/10/06 05:59:44;;;;;;;5.05;0.90;;;11.70;84.30;;;10.10;94.55;96185.00;5025077;28;20505;-66
2021/10/06 06:02:09;;;;;;;3.75;1.20;;;11.60;83.80;;;10.13;94.51;96189.88;4995732;28;20017;-66
2021/10/06 06:04:35;;;;;;;5.80;0.93;;;11.70;83.80;;;10.14;94.47;96194.13;4979175;28;20038;-69
2021/10/06 06:07:02;;;;;;;2.30;0.77;;;11.70;83.60;;;10.14;93.02;96192.31;4991420;28;20068;-65
2021/10/06 06:09:27;;;;;;;3.55;0.65;;;11.70;83.50;;;10.15;92.73;96201.00;4995405;28;20037;-68
2021/10/06 06:11:53;;;;;;;2.83;0.88;;;11.60;82.90;;;10.17;92.97;96199.00;4993782;28;20125;-68
2021/10/06 06:14:19;;;;;;;4.43;0.93;;;11.70;83.50;;;10.20;92.82;96195.22;4996048;28;20034;-69
2021/10/06 06:16:45;;;;;;;3.72;1.10;;;11.70;82.70;;;10.20;93.49;96201.31;4995801;28;20128;-68
2021/10/06 06:19:11;;;;;;;3.97;0.93;;;11.70;82.60;;;10.20;92.65;96205.75;5011068;28;20030;-69
2021/10/06 06:21:36;;;;;;;3.13;1.00;;;11.70;82.80;;;10.21;92.71;96207.41;4995645;28;20507;-69
2021/10/06 06:24:02;;;;;;;3.53;1.27;;;11.60;83.10;;;10.22;93.05;96215.13;4995011;28;20029;-66
2021/10/06 06:26:28;;;;;;;2.28;0.95;;;11.70;82.70;;;10.19;92.34;96220.72;4992476;28;20034;-63
2021/10/06 06:28:54;;;;;;;3.55;1.00;;;11.60;83.20;;;10.21;92.34;96213.47;4976132;28;20105;-69
2021/10/06 06:31:20;;;;;;;3.20;1.13;;;11.70;83.10;;;10.22;92.26;96215.13;4999777;28;20048;-68
2021/10/06 06:33:46;;;;;;;2.47;1.02;;;11.70;82.70;;;10.19;92.63;96220.72;4994085;28;20161;-67
2021/10/06 06:36:11;;;;;;;3.70;1.13;;;11.60;82.90;;;10.19;93.49;96228.59;5012119;28;20524;-69
2021/10/06 06:38:37;;;;;;;3.55;1.00;;;11.60;82.80;;;10.20;92.22;96230.22;5011385;28;20061;-68
2021/10/06 06:41:04;;;;;;;3.10;0.98;;;11.70;83.10;;;10.22;92.98;96233.50;5011101;28;20048;-68
2021/10/06 06:43:30;;;;;;;2.65;0.98;;;11.70;82.80;;;10.21;93.05;96234.50;4994663;28;20033;-65
2021/10/06 06:45:56;;;;;;;2.38;0.75;;;11.80;82.60;;;10.23;92.81;96236.94;4979665;28;20037;-62
2021/10/06 06:48:21;;;;;;;3.53;0.77;;;11.80;82.40;;;10.22;92.95;96236.13;4995555;28;20041;-68
2021/10/06 06:50:53;;;;;;;11.27;6.97;;;11.80;82.20;;;10.24;91.74;96236.78;4978133;28;20037;-63
2021/10/06 06:53:22;;;;;;;3.70;1.55;;;11.90;82.10;;;10.27;91.79;96236.41;4976508;28;20042;-65
2021/10/06 06:55:48;;;;;;;2.95;1.60;;;11.90;82.20;;;10.29;92.46;96244.09;4999028;28;20033;-65
2021/10/06 06:58:14;;;;;;;2.58;0.90;;;11.90;81.90;;;10.33;91.69;96242.72;5010161;28;20464;-69
2021/10/06 07:00:40;;;;;;;3.78;1.30;;;12.00;81.60;;;10.36;91.67;96248.44;4994296;28;20503;-62
2021/10/06 07:03:06;;;;;;;5.13;1.40;;;12.10;81.60;;;10.40;92.04;96249.69;4978877;28;20156;-62
2021/10/06 07:05:32;;;;;;;2.17;0.95;;;12.20;82.20;;;10.46;92.51;96247.34;4994718;28;20060;-71
2021/10/06 07:07:57;;;;;;;3.83;1.15;;;12.10;81.20;;;10.46;92.03;96247.34;5023937;28;20060;-65
2021/10/06 07:10:23;;;;;;;2.97;0.90;;;12.10;81.50;;;10.49;91.74;96246.97;5019946;28;20041;-61
2021/10/06 07:12:49;;;;;;;4.10;0.90;;;12.10;81.50;;;10.50;91.66;96254.69;5011308;28;20189;-61
2021/10/06 07:15:16;;;;;;;2.13;0.75;;;12.10;81.40;;;10.50;90.72;96257.31;4971462;28;20054;-68
2021/10/06 07:17:41;;;;;;;3.22;0.80;;;12.10;81.50;;;10.46;90.69;96257.88;4995050;28;20091;-68
2021/10/06 07:20:09;;;;;;;1.90;0.70;;;12.00;81.00;;;10.46;90.72;96268.38;4977809;28;20065;-69
2021/10/06 07:22:35;;;;;;;2.20;0.60;;;11.90;81.20;;;10.42;90.57;96263.50;4995274;28;20554;-65
2021/10/06 07:25:03;;;;;;;3.60;0.60;;;11.90;81.20;;;10.41;90.90;96261.06;4994335;28;20080;-66
2021/10/06 07:27:28;;;;;;;1.70;0.60;;;12.00;81.70;;;10.42;91.12;96263.50;4991681;28;20029;-69
2021/10/06 07:29:54;;;;;;;2.03;0.65;;;12.10;81.60;;;10.39;89.83;96271.72;4998249;28;20045;-68
2021/10/06 07:32:20;;;;;;;3.75;0.77;;;11.90;81.20;;;10.37;90.41;96267.66;4995514;28;20419;-68
2021/10/06 07:34:46;;;;;;;1.55;0.60;;;12.00;81.60;;;10.37;90.65;96273.72;4958441;28;20601;-70
2021/10/06 07:37:12;;;;;;;2.05;0.80;;;11.90;81.10;;;10.39;90.38;96278.78;4985127;28;20030;-68
2021/10/06 07:39:38;;;;;;;2.53;0.82;;;12.00;81.10;;;10.34;90.50;96273.28;4975913;28;20588;-69
2021/10/06 07:42:03;;;;;;;2.58;0.70;;;11.80;80.70;;;10.30;90.47;96278.09;4980919;28;20117;-70
2021/10/06 07:44:29;;;;;;;4.18;1.05;;;11.80;81.00;;;10.31;90.75;96274.47;4975493;28;20083;-69
2021/10/06 07:46:55;;;;;;;3.10;0.82;;;11.90;81.10;;;10.36;90.57;96287.88;4992172;28;20121;-69
2021/10/06 07:49:21;;;;;;;4.22;1.05;;;12.10;81.10;;;10.45;91.05;96282.53;4989750;28;20041;-68
2021/10/06 07:51:46;;;;;;;3.53;1.40;;;12.30;80.50;;;10.53;90.72;96279.78;4991059;28;20053;-66
2021/10/06 07:54:12;;;;;;;3.15;0.95;;;12.40;79.70;;;10.60;90.71;96281.50;4991441;28;20424;-70
2021/10/06 07:56:38;;;;;;;4.22;1.00;;;12.50;79.20;;;10.68;89.95;96280.59;4991130;28;20046;-66
2021/10/06 07:59:04;;;;;;;2.63;0.80;;;12.60;78.30;;;10.78;90.12;96282.91;4983067;28;20034;-66
2021/10/06 08:01:29;;;;;;;4.28;0.70;;;12.70;79.10;;;10.92;89.92;96274.16;4974887;28;20145;-62
2021/10/06 08:03:55;;;;;;;2.75;0.43;;;13.10;78.60;;;11.09;89.30;96280.84;5011118;28;20034;-66
2021/10/06 08:06:21;;;;;;;3.05;0.68;;;13.30;77.40;;;11.24;88.23;96272.84;4998432;28;20533;-70
2021/10/06 08:08:47;;;;;;;3.80;1.48;;;13.40;75.80;;;11.35;87.65;96282.91;5001424;28;20692;-69
2021/10/06 08:11:12;;;;;;;2.53;1.08;;;13.50;74.50;;;11.43;86.49;96282.75;5033874;28;20053;-68
2021/10/06 08:13:38;;;;;;;3.33;1.05;;;13.60;74.70;;;11.56;86.46;96272.34;4986796;28;20117;-68
2021/10/06 08:16:04;;;;;;;4.15;1.27;;;13.70;74.30;;;11.63;85.71;96283.75;4979860;28;20061;-69
2021/10/06 08:18:30;;;;;;;4.65;1.50;;;13.80;73.60;;;11.80;86.09;96278.22;4951883;28;20037;-68
2021/10/06 08:20:56;;;;;;;2.67;1.10;;;14.10;73.60;;;12.03;85.67;96273.50;4993725;28;20060;-69
2021/10/06 08:23:22;;;;;;;4.78;1.20;;;14.60;72.30;;;12.20;84.93;96280.09;4955376;28;20034;-68
2021/10/06 08:25:48;;;;;;;2.42;1.00;;;14.70;71.20;;;12.39;83.71;96288.31;4961936;28;20068;-69
2021/10/06 08:28:14;;;;;;;2.58;0.80;;;15.00;68.90;;;12.62;83.77;96295.91;5010797;28;20030;-69
2021/10/06 08:30:40;;;;;;;2.42;0.77;;;15.20;69.00;;;12.88;82.57;96293.38;4989187;28;20076;-68
2021/10/06 08:33:06;;;;;;;4.65;0.75;;;15.80;67.80;;;13.15;82.50;96299.56;4973905;28;20363;-68
2021/10/06 08:35:32;;;;;;;3.63;0.85;;;16.10;65.30;;;13.45;80.69;96295.56;4974588;28;20065;-68
2021/10/06 08:37:57;;;;;;;3.58;0.90;;;16.50;64.30;;;13.70;80.33;96292.34;4940560;28;20423;-68
2021/10/06 08:40:23;;;;;;;2.88;0.60;;;16.60;63.40;;;14.04;79.22;96301.88;4979081;28;20130;-68
2021/10/06 08:42:49;;;;;;;4.32;0.90;;;17.00;62.70;;;14.23;78.07;96289.63;5010754;28;20076;-66
2021/10/06 08:45:15;;;;;;;3.53;1.00;;;16.70;62.40;;;14.31;77.77;96298.16;4992787;28;20607;-62
2021/10/06 08:47:41;;;;;;;2.75;0.98;;;16.60;63.60;;;14.36;75.76;96305.47;4962354;28;20052;-68
2021/10/06 08:50:09;;;;;;;2.90;0.75;;;16.50;62.40;;;14.39;75.87;96307.72;4957909;28;20094;-62
2021/10/06 08:52:35;;;;;;;2.30;0.57;;;16.70;63.00;;;14.44;75.64;96305.28;4994072;28;20541;-62
2021/10/06 08:55:02;;;;;;;4.38;0.70;;;16.80;61.70;;;14.36;73.82;96302.84;4996109;28;20030;-63
2021/10/06 08:57:27;;;;;;;3.60;0.80;;;16.30;61.50;;;14.41;75.25;96310.97;4961811;28;20064;-64
2021/10/06 08:59:53;;;;;;;2.33;0.80;;;16.80;61.20;;;14.50;74.54;96309.75;5004771;28;20076;-68
2021/10/06 09:02:19;;;;;;;2.10;0.80;;;16.70;61.20;;;14.57;73.48;96313.19;4968263;28;20033;-73
2021/10/06 09:04:49;;;;;;;2.45;0.70;;;16.90;59.10;;;14.62;72.58;96313.38;4985041;28;20045;-71
2021/10/06 09:07:15;;;;;;;3.20;1.05;;;17.00;59.80;;;14.73;73.48;96316.41;4960770;28;20041;-69
2021/10/06 09:09:40;;;;;;;3.65;0.60;;;17.30;59.60;;;14.83;72.19;96314.13;5024022;28;20026;-71
2021/10/06 09:12:16;;;;;;;4.10;0.90;;;17.40;58.50;;;14.83;69.81;96319.41;4946729;28;20527;-70
2021/10/06 09:14:46;;;;;;;2.53;0.68;;;17.10;58.70;;;14.86;69.76;96325.09;5009944;28;20034;-71
2021/10/06 09:17:19;;;;;;;3.55;0.93;;;17.10;58.20;;;14.82;67.88;96325.72;4993737;28;20026;-70
2021/10/06 09:19:57;;;;;;;3.70;0.90;;;16.90;57.90;;;14.82;69.76;96328.38;4980205;28;20396;-69
2021/10/06 09:22:27;;;;;;;1.60;0.90;;;17.00;58.90;;;14.91;69.76;96316.50;4980585;28;20080;-73
2021/10/06 09:25:03;;;;;;;5.95;1.10;;;17.30;58.30;;;15.02;68.30;96313.22;4973126;28;20033;-69
2021/10/06 09:27:34;;;;;;;3.97;0.77;;;17.50;56.40;;;15.06;70.13;96319.72;4979674;28;20033;-70
2021/10/06 09:30:07;;;;;;;2.53;0.70;;;17.50;57.10;;;15.23;68.46;96320.84;4987541;28;20083;-63
2021/10/06 09:32:41;;;;;;;1.95;0.60;;;18.40;55.30;;;15.44;66.70;96327.66;4984059;28;20553;-70
2021/10/06 09:35:25;;;;;;;8.27;1.05;;;18.70;53.90;;;15.68;66.84;96323.47;4976697;28;20038;-70
2021/10/06 09:37:55;;;;;;;3.67;0.80;;;18.80;54.60;;;15.88;67.65;96323.31;4981755;28;20033;-68
2021/10/06 09:40:28;;;;;;;2.20;0.68;;;19.10;53.40;;;16.07;67.56;96325.00;4968487;28;20041;-66
2021/10/06 09:42:59;;;;;;;4.25;1.35;;;19.10;53.40;;;16.22;66.58;96325.44;4980684;28;20509;-69
2021/10/06 09:45:36;;;;;;;2.28;0.80;;;19.30;51.80;;;16.35;64.21;96332.47;4997144;28;20025;-69
2021/10/06 09:48:03;;;;;;;2.67;0.60;;;19.40;51.40;;;16.47;67.04;96333.38;4972519;28;20576;-70
2021/10/06 09:50:29;;;;;;;3.67;1.40;;;19.40;50.40;;;16.49;66.02;96331.28;5009104;28;20511;-69
2021/10/06 09:52:54;;;;;;;4.53;1.15;;;18.80;51.80;;;16.45;65.47;96343.41;4973359;28;20065;-69
2021/10/06 09:55:20;;;;;;;2.78;0.75;;;18.60;53.00;;;16.36;64.73;96328.78;4979655;28;20040;-71
2021/10/06 09:57:46;;;;;;;3.20;0.65;;;18.20;52.10;;;16.30;64.35;96335.00;4981454;28;20041;-69
2021/10/06 10:00:16;;;;;;;2.35;1.00;;;18.50;53.60;;;16.25;64.65;96329.50;5006183;28;20033;-69
2021/10/06 10:02:41;;;;;;;4.18;1.63;;;18.60;52.40;;;16.18;64.96;96344.69;5002900;28;20471;-69
2021/10/06 10:05:08;;;;;;;2.80;0.77;;;18.20;54.80;;;16.05;63.54;96344.78;5001318;28;20056;-66
2021/10/06 10:07:34;;;;;;;2.92;0.60;;;17.80;52.40;;;15.82;63.21;96346.19;4981916;28;20034;-66
2021/10/06 10:10:00;;;;;;;4.45;0.90;;;17.50;52.50;;;15.73;63.19;96350.13;5009590;28;20076;-69
2021/10/06 10:12:27;;;;;;;3.03;0.77;;;17.60;53.60;;;15.72;63.71;96345.88;4960447;28;20064;-67
2021/10/06 10:14:53;;;;;;;1.23;0.63;;;17.80;54.10;;;15.78;63.25;96339.69;4976486;28;20056;-67
2021/10/06 10:17:19;;;;;;;2.72;0.60;;;18.70;52.00;;;16.06;63.36;96351.72;4978122;28;20486;-69